Zephyr, Texas
Current Conditions -  °F | °C
As of 4:15 PM on Saturday 25 Oct 2014 (Local Time) from KBWD Reporting Station
Clear Clear  
Wind Chill: 86°   Ceiling: Unl
Heat Index: 86°   Visibility: 10mi
Dew Point: 54°   Wind: 8mph
Humidity: 33%   Direction: 200°SSW
Pressure: 30.09"   Gusts: NA
Location:  31.68°N, 98.79°W
Report Text: KBWD 252115Z AUTO 20007KT 10SM CLR 30/12 A3009 RMK AO2
Loading
Personal Weather Stations






























Interactive Weather Map
Tropical Storm Tracking
New forecast layout! Learn more

10-Day Weather Forecast

Advertisements
Track Severe Weather on mobile